Time,TemperatureF,DewpointF,PressureIn,WindDirection,WindDirectionDegrees,WindSpeedMPH,WindSpeedGustMPH,Humidity,HourlyPrecipIn,Conditions,Clouds,dailyrainin,SoftwareType,DateUTC
2013-02-13 00:07:00,46.3,35.9,30.11,WNW,302,4.0,4.0,67,0.00,,,0.00,Wunderground v.1.15,2013-02-13 06:07:00,
2013-02-13 00:17:00,45.4,34.3,30.13,NW,312,8.0,8.0,65,0.00,,,0.00,Wunderground v.1.15,2013-02-13 06:17:00,
2013-02-13 00:27:00,44.4,33.7,30.13,NW,315,7.0,7.0,66,0.00,,,0.00,Wunderground v.1.15,2013-02-13 06:27:00,
2013-02-13 00:37:00,43.8,33.2,30.13,NW,306,6.0,9.0,66,0.00,,,0.00,Wunderground v.1.15,2013-02-13 06:37:00,
2013-02-13 00:47:00,43.5,32.9,30.12,West,279,8.0,8.0,66,0.00,,,0.00,Wunderground v.1.15,2013-02-13 06:47:00,
2013-02-13 00:57:00,43.1,32.9,30.12,WNW,303,5.0,5.0,67,0.00,,,0.00,Wunderground v.1.15,2013-02-13 06:57:00,
2013-02-13 01:07:00,42.8,33.0,30.13,WNW,298,4.0,4.0,68,0.00,,,0.00,Wunderground v.1.15,2013-02-13 07:07:00,
2013-02-13 01:17:00,42.4,32.9,30.13,WNW,294,3.0,3.0,69,0.00,,,0.00,Wunderground v.1.15,2013-02-13 07:17:00,
2013-02-13 01:27:00,42.0,32.9,30.13,West,267,3.0,4.0,70,0.00,,,0.00,Wunderground v.1.15,2013-02-13 07:27:00,
2013-02-13 01:37:00,41.7,32.6,30.12,West,269,4.0,4.0,70,0.00,,,0.00,Wunderground v.1.15,2013-02-13 07:37:00,
2013-02-13 01:47:00,41.3,32.2,30.12,WNW,296,3.0,3.0,70,0.00,,,0.00,Wunderground v.1.15,2013-02-13 07:47:00,
2013-02-13 01:57:00,41.1,32.1,30.12,NNW,327,3.0,3.0,70,0.00,,,0.00,Wunderground v.1.15,2013-02-13 07:57:00,
2013-02-13 02:07:00,40.8,31.8,30.13,NNW,327,1.0,1.0,70,0.00,,,0.00,Wunderground v.1.15,2013-02-13 08:07:00,
2013-02-13 02:17:00,40.4,31.7,30.15,NNW,327,0.0,0.0,71,0.00,,,0.00,Wunderground v.1.15,2013-02-13 08:17:00,
2013-02-13 02:27:00,39.5,31.9,30.15,NNW,327,1.0,1.0,74,0.00,,,0.00,Wunderground v.1.15,2013-02-13 08:27:00,
2013-02-13 02:37:00,38.8,31.9,30.16,NNW,327,0.0,1.0,76,0.00,,,0.00,Wunderground v.1.15,2013-02-13 08:37:00,
2013-02-13 02:47:00,38.8,31.9,30.16,NNW,327,0.0,0.0,76,0.00,,,0.00,Wunderground v.1.15,2013-02-13 08:47:00,
2013-02-13 02:56:00,38.5,31.6,30.16,NNW,327,0.0,0.0,76,0.00,,,0.00,Wunderground v.1.15,2013-02-13 08:56:00,
2013-02-13 03:07:00,38.1,31.5,30.15,NNW,327,0.0,0.0,77,0.00,,,0.00,Wunderground v.1.15,2013-02-13 09:07:00,
2013-02-13 03:17:00,37.7,31.5,30.15,NNW,327,0.0,0.0,78,0.00,,,0.00,Wunderground v.1.15,2013-02-13 09:17:00,
2013-02-13 03:27:00,37.2,31.3,30.15,NNW,327,0.0,1.0,79,0.00,,,0.00,Wunderground v.1.15,2013-02-13 09:27:00,
2013-02-13 03:37:00,37.1,31.5,30.15,NNW,327,1.0,1.0,80,0.00,,,0.00,Wunderground v.1.15,2013-02-13 09:37:00,
2013-02-13 03:47:00,36.8,31.2,30.16,NNW,327,0.0,0.0,80,0.00,,,0.00,Wunderground v.1.15,2013-02-13 09:47:00,
2013-02-13 03:56:00,37.2,31.9,30.16,NW,316,2.0,2.0,81,0.00,,,0.00,Wunderground v.1.15,2013-02-13 09:56:00,
2013-02-13 04:07:00,38.0,32.4,30.14,WNW,297,3.0,3.0,80,0.00,,,0.00,Wunderground v.1.15,2013-02-13 10:07:00,
2013-02-13 04:17:00,38.5,32.6,30.14,NW,310,4.0,4.0,79,0.00,,,0.00,Wunderground v.1.15,2013-02-13 10:17:00,
2013-02-13 04:27:00,39.0,32.7,30.14,NW,311,4.0,4.0,78,0.00,,,0.00,Wunderground v.1.15,2013-02-13 10:27:00,
2013-02-13 04:37:00,39.4,32.8,30.13,NW,319,4.0,8.0,77,0.00,,,0.00,Wunderground v.1.15,2013-02-13 10:37:00,
2013-02-13 04:47:00,39.3,32.7,30.14,NW,319,4.0,4.0,77,0.00,,,0.00,Wunderground v.1.15,2013-02-13 10:47:00,
2013-02-13 04:57:00,39.3,32.7,30.14,WNW,295,5.0,5.0,77,0.00,,,0.00,Wunderground v.1.15,2013-02-13 10:57:00,
2013-02-13 05:07:00,39.3,32.7,30.14,NNW,332,5.0,5.0,77,0.00,,,0.00,Wunderground v.1.15,2013-02-13 11:07:00,
2013-02-13 05:17:00,39.1,32.5,30.14,NW,320,5.0,5.0,77,0.00,,,0.00,Wunderground v.1.15,2013-02-13 11:17:00,
2013-02-13 05:27:00,38.8,32.5,30.14,NW,311,4.0,4.0,78,0.00,,,0.00,Wunderground v.1.15,2013-02-13 11:27:00,
2013-02-13 05:37:00,38.8,32.5,30.14,NW,310,3.0,3.0,78,0.00,,,0.00,Wunderground v.1.15,2013-02-13 11:37:00,
2013-02-13 05:47:00,38.5,32.6,30.14,NW,310,2.0,2.0,79,0.00,,,0.00,Wunderground v.1.15,2013-02-13 11:47:00,
2013-02-13 05:57:00,38.2,32.3,30.14,NW,310,2.0,2.0,79,0.00,,,0.00,Wunderground v.1.15,2013-02-13 11:57:00,
2013-02-13 06:17:00,37.7,32.1,30.16,NW,306,3.0,3.0,80,0.00,,,0.00,Wunderground v.1.15,2013-02-13 12:17:00,
2013-02-13 06:27:00,37.7,32.4,30.16,NW,308,3.0,3.0,81,0.00,,,0.00,Wunderground v.1.15,2013-02-13 12:27:00,
2013-02-13 06:37:00,37.5,32.2,30.16,NW,308,2.0,2.0,81,0.00,,,0.00,Wunderground v.1.15,2013-02-13 12:37:00,
2013-02-13 06:47:00,37.4,32.1,30.17,NW,308,1.0,1.0,81,0.00,,,0.00,Wunderground v.1.15,2013-02-13 12:47:00,
2013-02-13 06:57:00,37.0,32.0,30.17,NW,308,0.0,0.0,82,0.00,,,0.00,Wunderground v.1.15,2013-02-13 12:57:00,
2013-02-13 07:17:00,36.4,31.7,30.18,NW,308,0.0,0.0,83,0.00,,,0.00,Wunderground v.1.15,2013-02-13 13:17:00,
2013-02-13 07:27:00,36.1,31.4,30.18,NW,308,0.0,1.0,83,0.00,,,0.00,Wunderground v.1.15,2013-02-13 13:27:00,
2013-02-13 07:37:00,36.2,31.8,30.19,NW,308,0.0,0.0,84,0.00,,,0.00,Wunderground v.1.15,2013-02-13 13:37:00,
2013-02-13 07:46:00,36.4,32.0,30.19,NW,308,0.0,0.0,84,0.00,,,0.00,Wunderground v.1.15,2013-02-13 13:46:00,
2013-02-13 07:57:00,37.2,32.5,30.19,NW,308,0.0,0.0,83,0.00,,,0.00,Wunderground v.1.15,2013-02-13 13:57:00,
2013-02-13 08:07:00,38.1,33.1,30.19,NW,308,1.0,1.0,82,0.00,,,0.00,Wunderground v.1.15,2013-02-13 14:07:00,
2013-02-13 08:16:00,39.0,33.4,30.20,WNW,294,3.0,4.0,80,0.00,,,0.00,Wunderground v.1.15,2013-02-13 14:16:00,
2013-02-13 08:26:00,39.8,33.5,30.20,WNW,302,3.0,4.0,78,0.00,,,0.00,Wunderground v.1.15,2013-02-13 14:26:00,
2013-02-13 08:37:00,40.7,33.1,30.19,WNW,288,5.0,6.0,74,0.00,,,0.00,Wunderground v.1.15,2013-02-13 14:37:00,
2013-02-13 08:47:00,41.5,33.5,30.20,NNW,336,5.0,6.0,73,0.00,,,0.00,Wunderground v.1.15,2013-02-13 14:47:00,
2013-02-13 08:57:00,42.4,34.0,30.20,NW,323,6.0,6.0,72,0.00,,,0.00,Wunderground v.1.15,2013-02-13 14:57:00,
2013-02-13 09:07:00,42.8,33.0,30.20,NW,320,7.0,10.0,68,0.00,,,0.00,Wunderground v.1.15,2013-02-13 15:07:00,
2013-02-13 09:17:00,43.1,33.3,30.20,NNW,340,7.0,8.0,68,0.00,,,0.00,Wunderground v.1.15,2013-02-13 15:17:00,
2013-02-13 09:27:00,44.1,33.1,30.20,NW,315,6.0,6.0,65,0.00,,,0.00,Wunderground v.1.15,2013-02-13 15:27:00,
2013-02-13 09:37:00,44.5,33.1,30.20,NNW,342,8.0,8.0,64,0.00,,,0.00,Wunderground v.1.15,2013-02-13 15:37:00,
2013-02-13 09:47:00,45.1,32.8,30.20,West,278,8.0,10.0,62,0.00,,,0.00,Wunderground v.1.15,2013-02-13 15:47:00,
2013-02-13 09:57:00,45.9,33.6,30.20,WNW,286,7.0,7.0,62,0.00,,,0.00,Wunderground v.1.15,2013-02-13 15:57:00,
2013-02-13 10:07:00,46.4,33.7,30.20,North,355,7.0,7.0,61,0.00,,,0.00,Wunderground v.1.15,2013-02-13 16:07:00,
2013-02-13 10:17:00,47.3,34.5,30.20,NW,304,6.0,6.0,61,0.00,,,0.00,Wunderground v.1.15,2013-02-13 16:17:00,
2013-02-13 10:27:00,47.6,34.0,30.20,WNW,290,6.0,6.0,59,0.00,,,0.00,Wunderground v.1.15,2013-02-13 16:27:00,
2013-02-13 10:37:00,48.2,34.1,30.20,WNW,284,7.0,13.0,58,0.00,,,0.00,Wunderground v.1.15,2013-02-13 16:37:00,
2013-02-13 10:47:00,48.5,33.9,30.20,WNW,288,6.0,6.0,57,0.00,,,0.00,Wunderground v.1.15,2013-02-13 16:47:00,
2013-02-13 10:57:00,48.8,34.7,30.20,NNW,340,7.0,7.0,58,0.00,,,0.00,Wunderground v.1.15,2013-02-13 16:57:00,
2013-02-13 11:07:00,49.7,34.2,30.20,WNW,283,5.0,6.0,55,0.00,,,0.00,Wunderground v.1.15,2013-02-13 17:07:00,
2013-02-13 11:17:00,50.1,35.0,30.20,NW,323,5.0,5.0,56,0.00,,,0.00,Wunderground v.1.15,2013-02-13 17:17:00,
2013-02-13 11:27:00,50.9,35.7,30.20,NW,306,4.0,4.0,56,0.00,,,0.00,Wunderground v.1.15,2013-02-13 17:27:00,
2013-02-13 11:37:00,51.3,34.7,30.19,WNW,290,5.0,7.0,53,0.00,,,0.00,Wunderground v.1.15,2013-02-13 17:37:00,
2013-02-13 11:47:00,51.9,35.8,30.18,NW,321,6.0,12.0,54,0.00,,,0.00,Wunderground v.1.15,2013-02-13 17:47:00,
2013-02-13 11:57:00,51.9,34.8,30.18,North,351,6.0,9.0,52,0.00,,,0.00,Wunderground v.1.15,2013-02-13 17:57:00,
2013-02-13 12:07:00,52.2,34.6,30.18,WNW,298,6.0,6.0,51,0.00,,,0.00,Wunderground v.1.15,2013-02-13 18:07:00,
2013-02-13 12:16:00,52.5,34.4,30.18,WNW,296,7.0,7.0,50,0.00,,,0.00,Wunderground v.1.15,2013-02-13 18:16:00,
2013-02-13 12:26:00,52.8,34.2,30.18,NW,318,5.0,5.0,49,0.00,,,0.00,Wunderground v.1.15,2013-02-13 18:26:00,
2013-02-13 12:37:00,53.8,35.1,30.17,North,360,5.0,7.0,49,0.00,,,0.00,Wunderground v.1.15,2013-02-13 18:37:00,
2013-02-13 12:47:00,54.0,34.7,30.16,North,5,4.0,4.0,48,0.00,,,0.00,Wunderground v.1.15,2013-02-13 18:47:00,
2013-02-13 12:57:00,54.1,34.8,30.16,West,264,5.0,5.0,48,0.00,,,0.00,Wunderground v.1.15,2013-02-13 18:57:00,
2013-02-13 13:07:00,54.4,34.0,30.15,NNW,342,5.0,6.0,46,0.00,,,0.00,Wunderground v.1.15,2013-02-13 19:07:00,
2013-02-13 13:16:00,55.0,34.6,30.14,WNW,292,4.0,9.0,46,0.00,,,0.00,Wunderground v.1.15,2013-02-13 19:16:00,
2013-02-13 13:26:00,55.6,32.8,30.14,West,281,6.0,6.0,42,0.00,,,0.00,Wunderground v.1.15,2013-02-13 19:26:00,
2013-02-13 13:37:00,55.9,32.5,30.13,WNW,288,5.0,6.0,41,0.00,,,0.00,Wunderground v.1.15,2013-02-13 19:37:00,
2013-02-13 13:47:00,56.5,31.8,30.12,SW,234,5.0,5.0,39,0.00,,,0.00,Wunderground v.1.15,2013-02-13 19:47:00,
2013-02-13 13:57:00,56.8,30.8,30.12,NNW,340,4.0,7.0,37,0.00,,,0.00,Wunderground v.1.15,2013-02-13 19:57:00,
2013-02-13 14:17:00,57.7,32.9,30.11,North,5,4.0,7.0,39,0.00,,,0.00,Wunderground v.1.15,2013-02-13 20:17:00,
2013-02-13 14:27:00,57.4,30.6,30.11,WNW,296,6.0,6.0,36,0.00,,,0.00,Wunderground v.1.15,2013-02-13 20:27:00,
2013-02-13 14:47:00,58.8,31.2,30.10,West,278,4.0,4.0,35,0.00,,,0.00,Wunderground v.1.15,2013-02-13 20:47:00,
2013-02-13 14:56:00,58.9,30.6,30.10,SW,228,4.0,4.0,34,0.00,,,0.00,Wunderground v.1.15,2013-02-13 20:56:00,
2013-02-13 15:07:00,58.8,30.5,30.10,NNE,15,4.0,4.0,34,0.00,,,0.00,Wunderground v.1.15,2013-02-13 21:07:00,
2013-02-13 15:17:00,59.1,31.4,30.09,NW,313,5.0,5.0,35,0.00,,,0.00,Wunderground v.1.15,2013-02-13 21:17:00,
2013-02-13 15:26:00,59.5,30.3,30.09,NNW,334,1.0,1.0,33,0.00,,,0.00,Wunderground v.1.15,2013-02-13 21:26:00,
2013-02-13 15:37:00,59.7,32.0,30.08,WNW,288,4.0,4.0,35,0.00,,,0.00,Wunderground v.1.15,2013-02-13 21:37:00,
2013-02-13 15:46:00,59.2,30.1,30.09,NNW,331,5.0,5.0,33,0.00,,,0.00,Wunderground v.1.15,2013-02-13 21:46:00,
2013-02-13 15:57:00,60.1,30.1,30.09,NW,326,0.0,6.0,32,0.00,,,0.00,Wunderground v.1.15,2013-02-13 21:57:00,
2013-02-13 16:17:00,59.5,28.8,30.08,NW,317,3.0,3.0,31,0.00,,,0.00,Wunderground v.1.15,2013-02-13 22:17:00,
2013-02-13 16:26:00,59.8,29.9,30.08,NNE,27,3.0,7.0,32,0.00,,,0.00,Wunderground v.1.15,2013-02-13 22:26:00,
2013-02-13 16:37:00,59.7,29.0,30.08,NW,319,4.0,4.0,31,0.00,,,0.00,Wunderground v.1.15,2013-02-13 22:37:00,
2013-02-13 16:47:00,59.4,29.5,30.08,NW,316,4.0,4.0,32,0.00,,,0.00,Wunderground v.1.15,2013-02-13 22:47:00,
2013-02-13 16:57:00,59.4,28.7,30.08,North,9,3.0,5.0,31,0.00,,,0.00,Wunderground v.1.15,2013-02-13 22:57:00,
2013-02-13 17:07:00,59.4,30.3,30.08,NNW,346,3.0,3.0,33,0.00,,,0.00,Wunderground v.1.15,2013-02-13 23:07:00,
2013-02-13 17:17:00,59.5,29.6,30.08,NNW,346,3.0,4.0,32,0.00,,,0.00,Wunderground v.1.15,2013-02-13 23:17:00,
2013-02-13 17:27:00,59.2,28.5,30.08,NW,324,2.0,2.0,31,0.00,,,0.00,Wunderground v.1.15,2013-02-13 23:27:00,
2013-02-13 17:37:00,58.9,29.1,30.08,NW,324,2.0,2.0,32,0.00,,,0.00,Wunderground v.1.15,2013-02-13 23:37:00,
2013-02-13 17:46:00,58.6,28.8,30.08,NW,325,2.0,2.0,32,0.00,,,0.00,Wunderground v.1.15,2013-02-13 23:46:00,
2013-02-13 17:56:00,58.2,29.9,30.08,NW,325,1.0,2.0,34,0.00,,,0.00,Wunderground v.1.15,2013-02-13 23:56:00,
2013-02-13 18:17:00,56.4,33.0,30.09,NW,325,0.0,0.0,41,0.00,,,0.00,Wunderground v.1.15,2013-02-14 00:17:00,
2013-02-13 18:27:00,54.6,34.8,30.09,NW,325,0.0,0.0,47,0.00,,,0.00,Wunderground v.1.15,2013-02-14 00:27:00,
2013-02-13 18:37:00,52.7,36.0,30.09,NW,325,0.0,0.0,53,0.00,,,0.00,Wunderground v.1.15,2013-02-14 00:37:00,
2013-02-13 18:47:00,50.3,35.2,30.10,NW,325,0.0,0.0,56,0.00,,,0.00,Wunderground v.1.15,2013-02-14 00:47:00,
2013-02-13 18:56:00,48.5,35.2,30.10,NW,325,0.0,0.0,60,0.00,,,0.00,Wunderground v.1.15,2013-02-14 00:56:00,
2013-02-13 19:07:00,47.6,35.6,30.10,NW,325,0.0,0.0,63,0.00,,,0.00,Wunderground v.1.15,2013-02-14 01:07:00,
2013-02-13 19:17:00,46.4,35.3,30.11,NW,325,0.0,0.0,65,0.00,,,0.00,Wunderground v.1.15,2013-02-14 01:17:00,
2013-02-13 19:27:00,45.3,35.0,30.11,NW,325,0.0,0.0,67,0.00,,,0.00,Wunderground v.1.15,2013-02-14 01:27:00,
2013-02-13 19:37:00,44.1,34.6,30.12,NW,325,0.0,0.0,69,0.00,,,0.00,Wunderground v.1.15,2013-02-14 01:37:00,
2013-02-13 19:47:00,43.1,34.3,30.12,NW,325,0.0,0.0,71,0.00,,,0.00,Wunderground v.1.15,2013-02-14 01:47:00,
2013-02-13 19:57:00,42.3,34.6,30.12,NW,324,0.0,0.0,74,0.00,,,0.00,Wunderground v.1.15,2013-02-14 01:57:00,
2013-02-13 20:07:00,41.1,33.8,30.12,NW,325,0.0,0.0,75,0.00,,,0.00,Wunderground v.1.15,2013-02-14 02:07:00,
2013-02-13 20:16:00,40.4,33.8,30.12,NW,325,0.0,1.0,77,0.00,,,0.00,Wunderground v.1.15,2013-02-14 02:16:00,
2013-02-13 20:26:00,39.8,33.5,30.12,NW,325,0.0,0.0,78,0.00,,,0.00,Wunderground v.1.15,2013-02-14 02:26:00,
2013-02-13 20:37:00,39.5,33.5,30.13,NW,325,0.0,0.0,79,0.00,,,0.00,Wunderground v.1.15,2013-02-14 02:37:00,
2013-02-13 20:46:00,38.8,32.8,30.13,NW,325,0.0,2.0,79,0.00,,,0.00,Wunderground v.1.15,2013-02-14 02:46:00,
2013-02-13 20:57:00,38.5,32.9,30.13,NW,325,0.0,0.0,80,0.00,,,0.00,Wunderground v.1.15,2013-02-14 02:57:00,
2013-02-13 21:07:00,38.2,32.9,30.13,NW,325,0.0,0.0,81,0.00,,,0.00,Wunderground v.1.15,2013-02-14 03:07:00,
2013-02-13 21:16:00,38.1,32.8,30.13,NW,324,0.0,0.0,81,0.00,,,0.00,Wunderground v.1.15,2013-02-14 03:16:00,
2013-02-13 21:26:00,37.7,32.4,30.13,NW,325,0.0,0.0,81,0.00,,,0.00,Wunderground v.1.15,2013-02-14 03:26:00,
2013-02-13 21:37:00,37.1,32.1,30.14,NW,325,0.0,0.0,82,0.00,,,0.00,Wunderground v.1.15,2013-02-14 03:37:00,
2013-02-13 21:47:00,36.7,31.7,30.14,NW,325,0.0,0.0,82,0.00,,,0.00,Wunderground v.1.15,2013-02-14 03:47:00,
2013-02-13 21:57:00,36.2,31.5,30.14,NW,325,0.0,0.0,83,0.00,,,0.00,Wunderground v.1.15,2013-02-14 03:57:00,
2013-02-13 22:17:00,35.7,31.3,30.15,NW,325,0.0,1.0,84,0.00,,,0.00,Wunderground v.1.15,2013-02-14 04:17:00,
2013-02-13 22:27:00,35.4,31.0,30.15,NW,325,0.0,0.0,84,0.00,,,0.00,Wunderground v.1.15,2013-02-14 04:27:00,
2013-02-13 22:37:00,35.2,31.1,30.15,NW,325,0.0,0.0,85,0.00,,,0.00,Wunderground v.1.15,2013-02-14 04:37:00,
2013-02-13 22:47:00,34.8,30.8,30.14,NW,325,0.0,0.0,85,0.00,,,0.00,Wunderground v.1.15,2013-02-14 04:47:00,
2013-02-13 22:56:00,34.2,30.2,30.14,NW,324,0.0,0.0,85,0.00,,,0.00,Wunderground v.1.15,2013-02-14 04:56:00,
2013-02-13 23:07:00,33.6,29.9,30.15,NW,325,0.0,0.0,86,0.00,,,0.00,Wunderground v.1.15,2013-02-14 05:07:00,
2013-02-13 23:17:00,33.3,29.6,30.15,NW,324,0.0,0.0,86,0.00,,,0.00,Wunderground v.1.15,2013-02-14 05:17:00,
2013-02-13 23:27:00,33.1,29.4,30.15,NW,325,0.0,0.0,86,0.00,,,0.00,Wunderground v.1.15,2013-02-14 05:27:00,
2013-02-13 23:37:00,32.7,29.3,30.15,NW,325,0.0,0.0,87,0.00,,,0.00,Wunderground v.1.15,2013-02-14 05:37:00,
2013-02-13 23:47:00,32.6,29.2,30.15,NW,325,0.0,0.0,87,0.00,,,0.00,Wunderground v.1.15,2013-02-14 05:47:00,
2013-02-13 23:56:00,32.1,28.7,30.15,NW,324,0.0,0.0,87,0.00,,,0.00,Wunderground v.1.15,2013-02-14 05:56:00,